createdAt,value
2022-09-07T00:00:40.015Z,100964.16
2022-09-07T00:03:07.242Z,100956.59
2022-09-07T00:05:34.258Z,100958.75
2022-09-07T00:08:01.118Z,100952.56
2022-09-07T00:10:28.974Z,100947.41
2022-09-07T00:12:55.514Z,100953.38
2022-09-07T00:15:22.188Z,100950.94
2022-09-07T00:17:48.752Z,100953.09
2022-09-07T00:20:15.531Z,100959.56
2022-09-07T00:22:42.232Z,100955.22
2022-09-07T00:25:09.068Z,100963.34
2022-09-07T00:27:35.647Z,100956.84
2022-09-07T00:30:02.271Z,100965.53
2022-09-07T00:32:28.865Z,100960.13
2022-09-07T00:34:55.432Z,100962.00
2022-09-07T00:37:22.136Z,100959.56
2022-09-07T00:39:49.761Z,100955.53
2022-09-07T00:42:18.839Z,100947.97
2022-09-07T00:45:10.422Z,100958.50
2022-09-07T00:47:42.552Z,100962.28
2022-09-07T00:50:24.335Z,100969.28
2022-09-07T00:52:56.853Z,100973.38
2022-09-07T00:55:23.748Z,100961.47
2022-09-07T00:57:54.736Z,100964.69
2022-09-07T01:00:22.423Z,100973.63
2022-09-07T01:02:52.198Z,100961.19
2022-09-07T01:05:45.593Z,100963.91
2022-09-07T01:08:13.349Z,100969.28
2022-09-07T01:10:40.508Z,100967.97
2022-09-07T01:13:07.153Z,100968.72
2022-09-07T01:15:46.261Z,100979.22
2022-09-07T01:18:27.153Z,100970.88
2022-09-07T01:21:21.087Z,100982.22
2022-09-07T01:24:12.572Z,100989.22
2022-09-07T01:26:45.387Z,100979.50
2022-09-07T01:29:23.687Z,100975.97
2022-09-07T01:31:50.174Z,100979.53
2022-09-07T01:34:26.473Z,100977.09
2022-09-07T01:36:55.988Z,100974.09
2022-09-07T01:39:29.692Z,100977.63
2022-09-07T01:42:06.170Z,100980.84
2022-09-07T01:44:58.421Z,100972.22
2022-09-07T01:47:46.102Z,100957.94
2022-09-07T01:50:19.277Z,100966.00
2022-09-07T01:53:17.415Z,100961.16
2022-09-07T01:55:50.329Z,100955.47
2022-09-07T01:58:35.299Z,100965.44
2022-09-07T02:01:09.676Z,100964.34
2022-09-07T02:03:40.159Z,100958.94
2022-09-07T02:06:25.045Z,100955.16
2022-09-07T02:09:20.551Z,100960.00
2022-09-07T02:11:50.209Z,100952.47
2022-09-07T02:14:34.215Z,100947.88
2022-09-07T02:17:06.895Z,100945.16
2022-09-07T02:19:40.967Z,100939.78
2022-09-07T02:22:14.014Z,100939.50
2022-09-07T02:24:46.945Z,100937.06
2022-09-07T02:27:34.414Z,100934.38
2022-09-07T02:30:01.046Z,100936.56
2022-09-07T02:32:27.671Z,100932.50
2022-09-07T02:34:54.219Z,100935.44
2022-09-07T02:37:21.358Z,100933.81
2022-09-07T02:39:49.404Z,100930.34
2022-09-07T02:42:16.153Z,100928.13
2022-09-07T02:44:45.571Z,100922.75
2022-09-07T02:47:20.973Z,100921.34
2022-09-07T02:50:15.351Z,100927.06
2022-09-07T02:52:50.659Z,100925.09
2022-09-07T02:55:54.335Z,100923.75
2022-09-07T02:58:29.153Z,100918.09
2022-09-07T03:01:01.686Z,100927.81
2022-09-07T03:03:53.671Z,100937.47
2022-09-07T03:06:30.957Z,100937.16
2022-09-07T03:09:01.919Z,100929.13
2022-09-07T03:11:29.397Z,100929.38
2022-09-07T03:14:20.819Z,100924.28
2022-09-07T03:16:49.905Z,100918.38
2022-09-07T03:19:16.788Z,100915.94
2022-09-07T03:21:43.469Z,100911.38
2022-09-07T03:24:10.619Z,100918.38
2022-09-07T03:26:41.820Z,100914.06
2022-09-07T03:29:08.405Z,100907.59
2022-09-07T03:31:35.971Z,100914.06
2022-09-07T03:34:02.953Z,100907.34
2022-09-07T03:36:30.592Z,100905.97
2022-09-07T03:38:59.468Z,100911.31
2022-09-07T03:41:27.676Z,100915.34
2022-09-07T03:43:54.479Z,100917.47
2022-09-07T03:46:21.544Z,100915.59
2022-09-07T03:48:49.226Z,100917.78
2022-09-07T03:51:18.267Z,100916.47
2022-09-07T03:53:46.599Z,100919.97
2022-09-07T03:56:13.135Z,100921.03
2022-09-07T03:58:39.907Z,100920.47
2022-09-07T04:01:09.600Z,100912.13
2022-09-07T04:03:36.876Z,100922.63
2022-09-07T04:06:04.263Z,100927.19
2022-09-07T04:08:34.714Z,100932.06
2022-09-07T04:11:04.944Z,100931.06
2022-09-07T04:13:33.971Z,100940.16
2022-09-07T04:16:00.664Z,100939.13
2022-09-07T04:18:27.328Z,100944.78
2022-09-07T04:20:58.812Z,100949.94
2022-09-07T04:23:25.434Z,100954.75
2022-09-07T04:25:52.678Z,100949.38
2022-09-07T04:28:20.801Z,100953.44
2022-09-07T04:30:47.917Z,100963.09
2022-09-07T04:33:14.940Z,100970.06
2022-09-07T04:35:42.911Z,100960.88
2022-09-07T04:38:14.641Z,100963.06
2022-09-07T04:40:41.455Z,100965.22
2022-09-07T04:43:09.586Z,100974.91
2022-09-07T04:45:37.513Z,100979.78
2022-09-07T04:48:05.245Z,100975.72
2022-09-07T04:50:32.618Z,100971.69
2022-09-07T04:52:59.179Z,100969.72
2022-09-07T04:55:25.770Z,100974.31
2022-09-07T04:57:52.387Z,100979.06
2022-09-07T05:00:19.542Z,100984.56
2022-09-07T05:02:46.126Z,100986.19
2022-09-07T05:05:12.830Z,100981.63
2022-09-07T05:07:39.417Z,100991.88
2022-09-07T05:10:06.223Z,100987.16
2022-09-07T05:12:32.790Z,100991.22
2022-09-07T05:14:59.351Z,101001.13
2022-09-07T05:17:25.934Z,100993.28
2022-09-07T05:19:52.558Z,101008.13
2022-09-07T05:22:19.329Z,101000.03
2022-09-07T05:24:47.731Z,101005.69
2022-09-07T05:27:14.299Z,101007.09
2022-09-07T05:32:27.452Z,101003.81
2022-09-07T05:34:53.997Z,100997.94
2022-09-07T05:37:20.710Z,101002.00
2022-09-07T05:39:48.206Z,101007.88
2022-09-07T05:42:14.993Z,101019.16
2022-09-07T05:47:13.191Z,101016.97
2022-09-07T05:49:40.087Z,101011.25
2022-09-07T05:52:06.948Z,101012.31
2022-09-07T05:54:33.612Z,101017.75
2022-09-07T05:57:00.179Z,101014.28
2022-09-07T05:59:26.742Z,101024.03
2022-09-07T06:01:53.502Z,101011.41
2022-09-07T06:04:20.106Z,101023.34
2022-09-07T06:06:59.355Z,101016.16
2022-09-07T06:09:31.469Z,101015.66
2022-09-07T06:11:58.086Z,101014.66
2022-09-07T06:14:25.008Z,101008.91
2022-09-07T06:16:51.609Z,101016.38
2022-09-07T06:19:18.247Z,101026.16
2022-09-07T06:21:44.805Z,101024.66
2022-09-07T06:24:11.464Z,101023.81
2022-09-07T06:26:38.036Z,101013.50
2022-09-07T06:29:04.778Z,101013.44
2022-09-07T06:31:31.971Z,101013.22
2022-09-07T06:33:58.898Z,101022.22
2022-09-07T06:36:29.896Z,101018.44
2022-09-07T06:38:59.131Z,101019.81
2022-09-07T06:44:15.310Z,101017.09
2022-09-07T06:49:28.651Z,101021.16
2022-09-07T06:51:55.472Z,101017.94
2022-09-07T06:57:09.429Z,101029.97
2022-09-07T06:59:37.180Z,101029.75
2022-09-07T07:02:05.350Z,101037.03
2022-09-07T07:04:35.129Z,101043.00
2022-09-07T07:07:04.599Z,101052.69
2022-09-07T07:09:31.136Z,101052.16
2022-09-07T07:11:57.675Z,101054.28
2022-09-07T07:14:24.208Z,101050.34
2022-09-07T07:16:50.809Z,101056.47
2022-09-07T07:19:17.469Z,101059.94
2022-09-07T07:22:07.973Z,101050.94
2022-09-07T07:24:30.651Z,101061.75
2022-09-07T07:26:57.539Z,101057.28
2022-09-07T07:29:27.960Z,101057.94
2022-09-07T07:31:54.913Z,101058.97
2022-09-07T07:34:21.608Z,101050.25
2022-09-07T07:36:48.260Z,101054.50
2022-09-07T07:42:03.131Z,101047.06
2022-09-07T07:44:31.534Z,101048.97
2022-09-07T07:46:58.247Z,101057.13
2022-09-07T07:49:24.918Z,101058.53
2022-09-07T07:54:41.457Z,101058.53
2022-09-07T07:57:08.596Z,101068.09
2022-09-07T07:59:35.681Z,101071.78
2022-09-07T08:02:04.837Z,101075.00
2022-09-07T08:04:35.512Z,101079.84
2022-09-07T08:07:08.638Z,101072.34
2022-09-07T08:09:36.937Z,101069.78
2022-09-07T08:12:03.862Z,101069.88
2022-09-07T08:14:30.351Z,101073.88
2022-09-07T08:16:56.932Z,101082.13
2022-09-07T08:19:23.403Z,101086.72
2022-09-07T08:21:49.865Z,101084.50
2022-09-07T08:24:16.343Z,101091.41
2022-09-07T08:26:42.790Z,101085.81
2022-09-07T08:29:09.264Z,101090.38
2022-09-07T08:31:35.783Z,101091.03
2022-09-07T08:34:02.261Z,101098.59
2022-09-07T08:36:31.686Z,101095.88
2022-09-07T08:38:58.135Z,101095.81
2022-09-07T08:42:03.060Z,101097.66
2022-09-07T08:44:54.208Z,101083.72
2022-09-07T08:47:45.718Z,101091.63
2022-09-07T08:50:39.667Z,101094.94
2022-09-07T08:53:13.961Z,101088.25
2022-09-07T08:55:51.007Z,101083.94
2022-09-07T08:58:55.576Z,101095.78
2022-09-07T09:01:32.285Z,101090.47
2022-09-07T09:07:10.708Z,101094.38
2022-09-07T09:09:52.264Z,101084.03
2022-09-07T09:12:24.696Z,101083.63
2022-09-07T09:14:54.124Z,101085.50
2022-09-07T09:17:32.319Z,101090.78
2022-09-07T09:20:24.010Z,101082.22
2022-09-07T09:23:17.340Z,101084.88
2022-09-07T09:26:00.483Z,101085.28
2022-09-07T09:28:28.943Z,101081.91
2022-09-07T09:30:59.602Z,101071.31
2022-09-07T09:33:28.018Z,101071.50
2022-09-07T09:35:57.356Z,101072.59
2022-09-07T09:38:34.425Z,101067.91
2022-09-07T09:41:07.688Z,101064.03
2022-09-07T09:43:40.845Z,101057.50
2022-09-07T09:46:27.263Z,101044.75
2022-09-07T09:49:00.126Z,101029.25
2022-09-07T09:54:36.265Z,101032.94
2022-09-07T09:57:03.699Z,101035.75
2022-09-07T10:05:38.592Z,101023.91
2022-09-07T10:08:16.379Z,101034.09
2022-09-07T10:10:58.347Z,101033.16
2022-09-07T10:13:46.913Z,101020.66
2022-09-07T10:16:14.611Z,101023.66
2022-09-07T10:18:58.185Z,101019.03
2022-09-07T10:21:30.526Z,101020.38
2022-09-07T10:24:05.724Z,101022.06
2022-09-07T10:26:39.767Z,101015.88
2022-09-07T10:29:14.308Z,101011.91
2022-09-07T10:32:13.756Z,101014.31
2022-09-07T10:34:58.089Z,101013.97
2022-09-07T10:37:57.168Z,101012.13
2022-09-07T10:40:45.301Z,101015.59
2022-09-07T10:43:21.070Z,101004.59
2022-09-07T10:45:54.195Z,101011.94
2022-09-07T10:48:29.718Z,101019.13
2022-09-07T10:51:05.043Z,101009.09
2022-09-07T10:56:47.483Z,101009.59
2022-09-07T11:00:07.452Z,101002.91
2022-09-07T11:05:56.832Z,100996.16
2022-09-07T11:09:15.703Z,100989.78
2022-09-07T11:14:20.173Z,100978.19
2022-09-07T11:17:01.112Z,100974.50
2022-09-07T11:19:35.828Z,100972.81
2022-09-07T11:22:20.152Z,100974.06
2022-09-07T11:27:47.372Z,100967.59
2022-09-07T11:30:24.816Z,100955.28
2022-09-07T11:33:18.432Z,100953.59
2022-09-07T11:36:02.214Z,100950.25
2022-09-07T11:38:34.541Z,100946.03
2022-09-07T11:41:21.155Z,100950.03
2022-09-07T11:44:13.516Z,100942.22
2022-09-07T11:46:53.512Z,100942.06
2022-09-07T11:49:26.576Z,100942.00
2022-09-07T11:52:05.043Z,100943.88
2022-09-07T11:54:41.329Z,100934.38
2022-09-07T11:57:10.504Z,100936.56
2022-09-07T11:59:48.003Z,100929.31
2022-09-07T12:02:58.410Z,100928.63
2022-09-07T12:06:14.914Z,100915.84
2022-09-07T12:08:56.505Z,100925.13
2022-09-07T12:11:29.085Z,100910.28
2022-09-07T12:14:20.742Z,100912.34
2022-09-07T12:17:35.056Z,100905.91
2022-09-07T12:20:11.877Z,100908.78
2022-09-07T12:22:55.801Z,100906.06
2022-09-07T12:25:22.446Z,100904.00
2022-09-07T12:27:49.383Z,100904.53
2022-09-07T12:30:15.775Z,100900.69
2022-09-07T12:32:57.059Z,100904.69
2022-09-07T12:35:27.885Z,100905.63
2022-09-07T12:38:14.929Z,100896.66
2022-09-07T12:40:58.734Z,100893.53
2022-09-07T12:43:27.960Z,100890.59
2022-09-07T12:45:56.678Z,100897.97
2022-09-07T12:48:38.557Z,100895.91
2022-09-07T12:51:10.124Z,100895.19
2022-09-07T12:53:36.505Z,100897.41
2022-09-07T12:56:16.629Z,100887.59
2022-09-07T12:58:43.424Z,100889.22
2022-09-07T13:01:22.074Z,100887.03
2022-09-07T13:04:06.025Z,100891.00
2022-09-07T13:07:06.086Z,100891.53
2022-09-07T13:09:36.621Z,100901.00
2022-09-07T13:12:57.649Z,100903.78
2022-09-07T13:15:45.808Z,100894.22
2022-09-07T13:18:27.371Z,100893.94
2022-09-07T13:21:08.849Z,100890.84
2022-09-07T13:23:37.854Z,100893.75
2022-09-07T13:26:08.640Z,100894.13
2022-09-07T13:28:58.377Z,100885.97
2022-09-07T13:31:43.497Z,100882.44
2022-09-07T13:34:34.864Z,100875.88
2022-09-07T13:37:03.248Z,100871.94
2022-09-07T13:39:39.060Z,100866.06
2022-09-07T13:42:06.547Z,100862.84
2022-09-07T13:44:34.381Z,100862.75
2022-09-07T13:47:24.967Z,100856.78
2022-09-07T13:49:58.048Z,100851.56
2022-09-07T13:52:38.220Z,100844.94
2022-09-07T13:55:31.867Z,100846.34
2022-09-07T13:58:22.188Z,100834.47
2022-09-07T14:00:58.786Z,100834.44
2022-09-07T14:03:28.337Z,100831.84
2022-09-07T14:06:26.784Z,100829.78
2022-09-07T14:09:02.177Z,100825.66
2022-09-07T14:11:46.390Z,100814.16
2022-09-07T14:14:33.239Z,100818.31
2022-09-07T14:16:59.752Z,100810.75
2022-09-07T14:19:45.238Z,100814.00
2022-09-07T14:22:15.893Z,100806.34
2022-09-07T14:24:51.262Z,100804.53
2022-09-07T14:27:25.324Z,100792.22
2022-09-07T14:29:52.741Z,100801.28
2022-09-07T14:32:24.070Z,100804.91
2022-09-07T14:34:50.737Z,100800.56
2022-09-07T14:37:21.321Z,100798.06
2022-09-07T14:39:49.423Z,100796.94
2022-09-07T14:42:25.093Z,100793.25
2022-09-07T14:45:23.589Z,100801.19
2022-09-07T14:47:52.754Z,100806.03
2022-09-07T14:50:21.003Z,100807.25
2022-09-07T14:55:42.003Z,100797.19
2022-09-07T14:58:14.230Z,100789.50
2022-09-07T15:00:41.000Z,100790.81
2022-09-07T15:03:31.716Z,100783.91
2022-09-07T15:06:02.965Z,100787.75
2022-09-07T15:08:43.640Z,100792.09
2022-09-07T15:11:34.517Z,100793.22
2022-09-07T15:14:08.712Z,100791.59
2022-09-07T15:16:38.986Z,100793.16
2022-09-07T15:19:18.531Z,100787.22
2022-09-07T15:21:45.602Z,100777.34
2022-09-07T15:24:12.425Z,100783.66
2022-09-07T15:27:04.286Z,100779.81
2022-09-07T15:29:31.654Z,100770.94
2022-09-07T15:32:03.814Z,100764.81
2022-09-07T15:34:32.453Z,100753.94
2022-09-07T15:37:01.056Z,100745.19
2022-09-07T15:39:29.829Z,100753.34
2022-09-07T15:41:57.015Z,100752.41
2022-09-07T15:44:26.521Z,100756.69
2022-09-07T15:49:45.991Z,100739.56
2022-09-07T15:52:16.082Z,100743.47
2022-09-07T15:54:43.473Z,100748.66
2022-09-07T15:59:57.234Z,100749.91
2022-09-07T16:05:10.705Z,100761.63
2022-09-07T16:10:24.462Z,100750.16
2022-09-07T16:15:47.834Z,100760.47
2022-09-07T16:18:17.037Z,100749.88
2022-09-07T16:20:44.360Z,100750.03
2022-09-07T16:23:14.684Z,100749.53
2022-09-07T16:25:43.381Z,100741.66
2022-09-07T16:28:10.839Z,100747.78
2022-09-07T16:30:40.867Z,100742.38
2022-09-07T16:33:08.282Z,100734.56
2022-09-07T16:35:34.920Z,100732.13
2022-09-07T16:40:50.083Z,100745.44
2022-09-07T16:43:16.866Z,100750.69
2022-09-07T16:48:34.620Z,100745.53
2022-09-07T16:51:02.998Z,100739.06
2022-09-07T16:53:31.271Z,100732.94
2022-09-07T16:56:09.635Z,100731.41
2022-09-07T16:58:38.883Z,100732.88
2022-09-07T17:01:07.247Z,100748.41
2022-09-07T17:03:34.743Z,100745.25
2022-09-07T17:06:01.808Z,100727.72
2022-09-07T17:08:28.768Z,100719.88
2022-09-07T17:11:03.610Z,100723.50
2022-09-07T17:13:34.220Z,100729.16
2022-09-07T17:16:05.591Z,100735.38
2022-09-07T17:21:20.073Z,100738.09
2022-09-07T17:23:54.220Z,100729.00
2022-09-07T17:26:22.531Z,100726.56
2022-09-07T17:28:50.795Z,100724.00
2022-09-07T17:34:10.318Z,100730.41
2022-09-07T17:36:36.767Z,100734.84
2022-09-07T17:39:19.679Z,100735.47
2022-09-07T17:41:52.738Z,100730.72
2022-09-07T17:44:19.703Z,100723.72
2022-09-07T17:46:46.232Z,100738.16
2022-09-07T17:49:14.432Z,100743.59
2022-09-07T17:51:41.411Z,100745.72
2022-09-07T17:54:12.791Z,100748.94
2022-09-07T17:56:40.165Z,100760.41
2022-09-07T18:01:54.245Z,100761.75
2022-09-07T18:04:21.137Z,100756.34
2022-09-07T18:06:47.759Z,100749.94
2022-09-07T18:09:14.341Z,100751.09
2022-09-07T18:11:47.121Z,100750.69
2022-09-07T18:14:15.280Z,100751.31
2022-09-07T18:16:43.920Z,100758.81
2022-09-07T18:19:11.960Z,100769.06
2022-09-07T18:21:40.913Z,100787.44
2022-09-07T18:24:13.556Z,100803.94
2022-09-07T18:26:41.000Z,100826.47
2022-09-07T18:29:18.920Z,100824.63
2022-09-07T18:31:53.777Z,100826.84
2022-09-07T18:34:20.680Z,100816.63
2022-09-07T18:36:47.329Z,100816.34
2022-09-07T18:39:13.751Z,100819.97
2022-09-07T18:41:40.882Z,100821.50
2022-09-07T18:45:27.258Z,100823.00
2022-09-07T18:46:54.381Z,100827.44
2022-09-07T18:49:20.882Z,100823.66
2022-09-07T18:54:33.928Z,100826.75
2022-09-07T18:57:00.487Z,100814.09
2022-09-07T18:59:27.017Z,100822.72
2022-09-07T19:01:54.148Z,100827.53
2022-09-07T19:04:21.173Z,100826.00
2022-09-07T19:06:48.020Z,100828.66
2022-09-07T19:09:14.595Z,100824.97
2022-09-07T19:11:42.200Z,100832.34
2022-09-07T19:14:09.086Z,100823.97
2022-09-07T19:16:36.342Z,100821.25
2022-09-07T19:19:06.032Z,100819.34
2022-09-07T19:21:37.059Z,100822.47
2022-09-07T19:24:10.975Z,100820.56
2022-09-07T19:26:40.531Z,100806.53
2022-09-07T19:29:15.410Z,100813.84
2022-09-07T19:31:44.900Z,100820.59
2022-09-07T19:34:11.710Z,100819.31
2022-09-07T19:36:39.095Z,100817.88
2022-09-07T19:39:05.898Z,100815.22
2022-09-07T19:41:34.090Z,100813.41
2022-09-07T19:44:00.605Z,100806.88
2022-09-07T19:46:27.258Z,100805.41
2022-09-07T19:48:53.776Z,100813.41
2022-09-07T19:51:20.350Z,100820.78
2022-09-07T19:53:47.213Z,100822.91
2022-09-07T19:56:21.716Z,100819.41
2022-09-07T19:58:49.675Z,100816.19
2022-09-07T20:01:19.489Z,100823.06
2022-09-07T20:03:50.145Z,100822.66
2022-09-07T20:06:18.466Z,100823.16
2022-09-07T20:08:45.220Z,100827.94
2022-09-07T20:11:14.635Z,100832.59
2022-09-07T20:13:41.551Z,100827.97
2022-09-07T20:16:11.361Z,100819.63
2022-09-07T20:18:38.957Z,100818.69
2022-09-07T20:21:06.914Z,100821.41
2022-09-07T20:23:35.031Z,100819.81
2022-09-07T20:26:04.158Z,100814.22
2022-09-07T20:28:31.254Z,100817.75
2022-09-07T20:30:57.960Z,100814.41
2022-09-07T20:33:24.682Z,100812.59
2022-09-07T20:35:51.524Z,100818.59
2022-09-07T20:38:20.666Z,100816.16
2022-09-07T20:40:51.595Z,100821.81
2022-09-07T20:43:18.467Z,100807.22
2022-09-07T20:45:44.987Z,100806.94
2022-09-07T20:48:11.542Z,100799.13
2022-09-07T20:50:38.123Z,100787.28
2022-09-07T20:53:04.567Z,100789.75
2022-09-07T20:55:31.082Z,100787.28
2022-09-07T20:57:57.496Z,100796.69
2022-09-07T21:00:24.990Z,100789.69
2022-09-07T21:02:51.532Z,100789.44
2022-09-07T21:05:18.124Z,100789.41
2022-09-07T21:07:44.594Z,100780.78
2022-09-07T21:10:11.174Z,100778.13
2022-09-07T21:12:37.712Z,100773.84
2022-09-07T21:15:04.519Z,100777.88
2022-09-07T21:17:30.973Z,100789.50
2022-09-07T21:19:57.399Z,100790.00
2022-09-07T21:22:23.851Z,100783.56
2022-09-07T21:24:50.275Z,100786.78
2022-09-07T21:27:16.840Z,100788.69
2022-09-07T21:29:43.273Z,100782.97
2022-09-07T21:32:09.740Z,100781.13
2022-09-07T21:34:36.176Z,100771.78
2022-09-07T21:37:02.678Z,100770.56
2022-09-07T21:39:29.396Z,100760.31
2022-09-07T21:41:55.966Z,100757.91
2022-09-07T21:44:22.506Z,100765.19
2022-09-07T21:46:49.021Z,100755.47
2022-09-07T21:49:15.479Z,100760.34
2022-09-07T21:51:42.161Z,100749.03
2022-09-07T21:54:08.747Z,100755.22
2022-09-07T21:56:35.526Z,100757.63
2022-09-07T21:59:02.644Z,100761.47
2022-09-07T22:01:30.404Z,100752.25
2022-09-07T22:04:21.071Z,100748.22
2022-09-07T22:06:47.635Z,100749.56
2022-09-07T22:09:14.152Z,100750.66
2022-09-07T22:11:44.163Z,100749.72
2022-09-07T22:14:13.503Z,100744.53
2022-09-07T22:16:40.001Z,100745.53
2022-09-07T22:19:06.674Z,100735.47
2022-09-07T22:21:33.891Z,100731.78
2022-09-07T22:24:03.124Z,100733.16
2022-09-07T22:26:31.965Z,100728.81
2022-09-07T22:28:58.771Z,100720.72
2022-09-07T22:31:28.198Z,100725.03
2022-09-07T22:33:56.750Z,100716.13
2022-09-07T22:36:26.510Z,100715.59
2022-09-07T22:38:55.062Z,100718.03
2022-09-07T22:41:25.815Z,100718.31
2022-09-07T22:43:52.290Z,100716.13
2022-09-07T22:46:20.843Z,100708.06
2022-09-07T22:48:47.733Z,100703.72
2022-09-07T22:51:15.328Z,100704.81
2022-09-07T22:53:43.654Z,100711.25
2022-09-07T22:56:12.696Z,100705.88
2022-09-07T22:58:39.464Z,100707.78
2022-09-07T23:01:06.519Z,100716.97
2022-09-07T23:03:34.772Z,100712.09
2022-09-07T23:06:01.731Z,100713.41
2022-09-07T23:08:28.274Z,100716.94
2022-09-07T23:10:54.861Z,100696.97
2022-09-07T23:13:22.170Z,100702.38
2022-09-07T23:15:49.554Z,100704.81
2022-09-07T23:18:18.230Z,100706.13
2022-09-07T23:20:44.974Z,100697.50
2022-09-07T23:23:12.096Z,100698.34
2022-09-07T23:25:42.689Z,100695.88
2022-09-07T23:28:12.209Z,100687.81
2022-09-07T23:30:42.491Z,100692.44
2022-09-07T23:33:08.954Z,100694.56
2022-09-07T23:35:35.382Z,100687.56
2022-09-07T23:38:01.968Z,100682.44
2022-09-07T23:40:30.341Z,100685.38
2022-09-07T23:42:57.216Z,100674.63
2022-09-07T23:45:24.248Z,100680.81
2022-09-07T23:47:50.999Z,100672.44
2022-09-07T23:50:17.854Z,100675.94
2022-09-07T23:52:44.411Z,100675.94
2022-09-07T23:55:11.145Z,100679.72
2022-09-07T23:57:38.630Z,100674.03
